sensor_id;sensor_type;location;lat;lon;timestamp;P1;durP1;ratioP1;P2;durP2;ratioP2
11960;SDS011;6040;49.358;11.140;2023-05-10T00:01:15;3.70;;;3.30;;
11960;SDS011;6040;49.358;11.140;2023-05-10T00:03:41;4.40;;;3.80;;
11960;SDS011;6040;49.358;11.140;2023-05-10T00:06:08;5.80;;;3.47;;
11960;SDS011;6040;49.358;11.140;2023-05-10T00:08:35;4.43;;;3.50;;
11960;SDS011;6040;49.358;11.140;2023-05-10T00:11:02;4.03;;;3.63;;
11960;SDS011;6040;49.358;11.140;2023-05-10T00:13:29;6.27;;;3.70;;
11960;SDS011;6040;49.358;11.140;2023-05-10T00:15:57;5.03;;;4.00;;
11960;SDS011;6040;49.358;11.140;2023-05-10T00:18:24;4.30;;;3.90;;
11960;SDS011;6040;49.358;11.140;2023-05-10T00:20:50;5.07;;;4.27;;
11960;SDS011;6040;49.358;11.140;2023-05-10T00:23:17;8.03;;;4.47;;
11960;SDS011;6040;49.358;11.140;2023-05-10T00:25:44;4.40;;;4.00;;
11960;SDS011;6040;49.358;11.140;2023-05-10T00:28:11;5.63;;;4.00;;
11960;SDS011;6040;49.358;11.140;2023-05-10T00:30:38;6.83;;;4.60;;
11960;SDS011;6040;49.358;11.140;2023-05-10T00:33:06;6.23;;;4.47;;
11960;SDS011;6040;49.358;11.140;2023-05-10T00:35:32;6.70;;;4.57;;
11960;SDS011;6040;49.358;11.140;2023-05-10T00:37:59;7.07;;;4.40;;
11960;SDS011;6040;49.358;11.140;2023-05-10T00:40:26;5.83;;;4.30;;
11960;SDS011;6040;49.358;11.140;2023-05-10T00:42:53;5.60;;;4.20;;
11960;SDS011;6040;49.358;11.140;2023-05-10T00:45:20;5.27;;;4.77;;
11960;SDS011;6040;49.358;11.140;2023-05-10T00:47:47;7.97;;;4.63;;
11960;SDS011;6040;49.358;11.140;2023-05-10T00:50:15;5.40;;;4.63;;
11960;SDS011;6040;49.358;11.140;2023-05-10T00:52:42;6.93;;;5.10;;
11960;SDS011;6040;49.358;11.140;2023-05-10T00:55:09;5.90;;;4.97;;
11960;SDS011;6040;49.358;11.140;2023-05-10T00:57:37;5.67;;;5.13;;
11960;SDS011;6040;49.358;11.140;2023-05-10T01:00:05;8.23;;;5.03;;
11960;SDS011;6040;49.358;11.140;2023-05-10T01:02:33;5.33;;;4.80;;
11960;SDS011;6040;49.358;11.140;2023-05-10T01:05:00;5.37;;;4.87;;
11960;SDS011;6040;49.358;11.140;2023-05-10T01:07:30;6.10;;;5.13;;
11960;SDS011;6040;49.358;11.140;2023-05-10T01:09:57;7.60;;;5.03;;
11960;SDS011;6040;49.358;11.140;2023-05-10T01:12:24;5.60;;;5.10;;
11960;SDS011;6040;49.358;11.140;2023-05-10T01:14:51;9.27;;;5.47;;
11960;SDS011;6040;49.358;11.140;2023-05-10T01:17:18;7.23;;;5.57;;
11960;SDS011;6040;49.358;11.140;2023-05-10T01:19:46;5.60;;;5.10;;
11960;SDS011;6040;49.358;11.140;2023-05-10T01:22:24;5.80;;;5.30;;
11960;SDS011;6040;49.358;11.140;2023-05-10T01:25:16;6.07;;;5.47;;
11960;SDS011;6040;49.358;11.140;2023-05-10T01:31:08;7.50;;;5.77;;
11960;SDS011;6040;49.358;11.140;2023-05-10T01:33:50;8.03;;;6.20;;
11960;SDS011;6040;49.358;11.140;2023-05-10T01:36:23;6.47;;;5.40;;
11960;SDS011;6040;49.358;11.140;2023-05-10T01:38:57;8.07;;;5.83;;
11960;SDS011;6040;49.358;11.140;2023-05-10T01:41:30;7.47;;;6.30;;
11960;SDS011;6040;49.358;11.140;2023-05-10T01:44:04;9.43;;;6.43;;
11960;SDS011;6040;49.358;11.140;2023-05-10T01:46:38;10.67;;;6.57;;
11960;SDS011;6040;49.358;11.140;2023-05-10T01:49:08;7.77;;;6.67;;
11960;SDS011;6040;49.358;11.140;2023-05-10T01:51:38;7.57;;;6.13;;
11960;SDS011;6040;49.358;11.140;2023-05-10T01:54:11;9.03;;;6.53;;
11960;SDS011;6040;49.358;11.140;2023-05-10T01:56:40;7.60;;;6.53;;
11960;SDS011;6040;49.358;11.140;2023-05-10T01:59:09;7.57;;;6.47;;
11960;SDS011;6040;49.358;11.140;2023-05-10T02:01:39;11.20;;;7.60;;
11960;SDS011;6040;49.358;11.140;2023-05-10T02:04:08;8.87;;;7.53;;
11960;SDS011;6040;49.358;11.140;2023-05-10T02:06:37;8.00;;;7.20;;
11960;SDS011;6040;49.358;11.140;2023-05-10T02:09:05;7.63;;;6.63;;
11960;SDS011;6040;49.358;11.140;2023-05-10T02:11:34;8.70;;;6.60;;
11960;SDS011;6040;49.358;11.140;2023-05-10T02:14:03;7.83;;;6.80;;
11960;SDS011;6040;49.358;11.140;2023-05-10T02:16:31;8.90;;;6.50;;
11960;SDS011;6040;49.358;11.140;2023-05-10T02:19:01;7.27;;;6.50;;
11960;SDS011;6040;49.358;11.140;2023-05-10T02:21:30;7.73;;;6.93;;
11960;SDS011;6040;49.358;11.140;2023-05-10T02:23:58;9.90;;;6.83;;
11960;SDS011;6040;49.358;11.140;2023-05-10T02:26:27;7.17;;;6.47;;
11960;SDS011;6040;49.358;11.140;2023-05-10T02:28:54;10.67;;;7.07;;
11960;SDS011;6040;49.358;11.140;2023-05-10T02:31:24;8.80;;;6.83;;
11960;SDS011;6040;49.358;11.140;2023-05-10T02:33:52;7.60;;;6.17;;
11960;SDS011;6040;49.358;11.140;2023-05-10T02:36:20;7.40;;;6.70;;
11960;SDS011;6040;49.358;11.140;2023-05-10T02:38:49;8.83;;;7.70;;
11960;SDS011;6040;49.358;11.140;2023-05-10T02:41:17;8.80;;;7.43;;
11960;SDS011;6040;49.358;11.140;2023-05-10T02:43:46;8.47;;;7.40;;
11960;SDS011;6040;49.358;11.140;2023-05-10T02:46:15;8.17;;;7.37;;
11960;SDS011;6040;49.358;11.140;2023-05-10T02:48:42;8.53;;;7.63;;
11960;SDS011;6040;49.358;11.140;2023-05-10T02:51:09;7.90;;;7.10;;
11960;SDS011;6040;49.358;11.140;2023-05-10T02:53:41;10.20;;;7.37;;
11960;SDS011;6040;49.358;11.140;2023-05-10T02:56:13;8.03;;;7.23;;
11960;SDS011;6040;49.358;11.140;2023-05-10T02:58:45;8.43;;;7.53;;
11960;SDS011;6040;49.358;11.140;2023-05-10T03:01:12;8.27;;;7.40;;
11960;SDS011;6040;49.358;11.140;2023-05-10T03:03:39;8.53;;;7.63;;
11960;SDS011;6040;49.358;11.140;2023-05-10T03:06:06;9.57;;;7.20;;
11960;SDS011;6040;49.358;11.140;2023-05-10T03:08:33;9.90;;;7.50;;
11960;SDS011;6040;49.358;11.140;2023-05-10T03:11:04;8.63;;;7.70;;
11960;SDS011;6040;49.358;11.140;2023-05-10T03:13:44;10.27;;;8.03;;
11960;SDS011;6040;49.358;11.140;2023-05-10T03:16:24;6.93;;;6.27;;
11960;SDS011;6040;49.358;11.140;2023-05-10T03:18:56;7.10;;;6.30;;
11960;SDS011;6040;49.358;11.140;2023-05-10T03:21:32;5.17;;;4.17;;
11960;SDS011;6040;49.358;11.140;2023-05-10T03:24:07;4.73;;;3.30;;
11960;SDS011;6040;49.358;11.140;2023-05-10T03:26:38;3.20;;;2.90;;
11960;SDS011;6040;49.358;11.140;2023-05-10T03:29:06;3.27;;;2.60;;
11960;SDS011;6040;49.358;11.140;2023-05-10T03:31:34;2.33;;;2.10;;
11960;SDS011;6040;49.358;11.140;2023-05-10T03:34:00;1.87;;;1.77;;
11960;SDS011;6040;49.358;11.140;2023-05-10T03:36:27;3.30;;;2.00;;
11960;SDS011;6040;49.358;11.140;2023-05-10T03:38:54;2.90;;;1.93;;
11960;SDS011;6040;49.358;11.140;2023-05-10T03:41:21;1.90;;;1.70;;
11960;SDS011;6040;49.358;11.140;2023-05-10T03:43:49;1.93;;;1.67;;
11960;SDS011;6040;49.358;11.140;2023-05-10T03:46:16;2.27;;;1.43;;
11960;SDS011;6040;49.358;11.140;2023-05-10T03:48:42;1.40;;;1.30;;
11960;SDS011;6040;49.358;11.140;2023-05-10T03:51:09;1.90;;;1.80;;
11960;SDS011;6040;49.358;11.140;2023-05-10T03:53:36;2.57;;;1.67;;
11960;SDS011;6040;49.358;11.140;2023-05-10T03:56:03;1.63;;;1.53;;
11960;SDS011;6040;49.358;11.140;2023-05-10T03:58:30;2.13;;;1.90;;
11960;SDS011;6040;49.358;11.140;2023-05-10T04:00:58;1.70;;;1.60;;
11960;SDS011;6040;49.358;11.140;2023-05-10T04:03:25;1.60;;;1.50;;
11960;SDS011;6040;49.358;11.140;2023-05-10T04:05:57;1.60;;;1.50;;
11960;SDS011;6040;49.358;11.140;2023-05-10T04:08:25;1.50;;;1.40;;
11960;SDS011;6040;49.358;11.140;2023-05-10T04:10:52;1.50;;;1.30;;
11960;SDS011;6040;49.358;11.140;2023-05-10T04:13:18;1.23;;;1.13;;
11960;SDS011;6040;49.358;11.140;2023-05-10T04:15:46;1.83;;;1.27;;
11960;SDS011;6040;49.358;11.140;2023-05-10T04:18:14;1.97;;;1.30;;
11960;SDS011;6040;49.358;11.140;2023-05-10T04:20:42;1.70;;;1.60;;
11960;SDS011;6040;49.358;11.140;2023-05-10T04:23:08;1.03;;;1.03;;
11960;SDS011;6040;49.358;11.140;2023-05-10T04:25:35;1.00;;;1.00;;
11960;SDS011;6040;49.358;11.140;2023-05-10T04:28:02;1.10;;;1.10;;
11960;SDS011;6040;49.358;11.140;2023-05-10T04:30:29;1.43;;;1.20;;
11960;SDS011;6040;49.358;11.140;2023-05-10T04:32:56;1.00;;;1.00;;
11960;SDS011;6040;49.358;11.140;2023-05-10T04:35:24;1.10;;;1.00;;
11960;SDS011;6040;49.358;11.140;2023-05-10T04:37:51;0.90;;;0.90;;
11960;SDS011;6040;49.358;11.140;2023-05-10T04:40:18;0.90;;;0.90;;
11960;SDS011;6040;49.358;11.140;2023-05-10T04:42:45;0.87;;;0.87;;
11960;SDS011;6040;49.358;11.140;2023-05-10T04:45:13;0.90;;;0.90;;
11960;SDS011;6040;49.358;11.140;2023-05-10T04:47:40;0.83;;;0.83;;
11960;SDS011;6040;49.358;11.140;2023-05-10T04:50:07;1.00;;;0.90;;
11960;SDS011;6040;49.358;11.140;2023-05-10T04:52:36;0.80;;;0.80;;
11960;SDS011;6040;49.358;11.140;2023-05-10T04:55:03;0.97;;;0.70;;
11960;SDS011;6040;49.358;11.140;2023-05-10T04:57:32;0.70;;;0.70;;
11960;SDS011;6040;49.358;11.140;2023-05-10T05:00:00;0.60;;;0.60;;
11960;SDS011;6040;49.358;11.140;2023-05-10T05:02:27;1.00;;;0.80;;
11960;SDS011;6040;49.358;11.140;2023-05-10T05:04:55;1.17;;;0.70;;
11960;SDS011;6040;49.358;11.140;2023-05-10T05:07:22;0.63;;;0.63;;
11960;SDS011;6040;49.358;11.140;2023-05-10T05:09:50;1.73;;;0.90;;
11960;SDS011;6040;49.358;11.140;2023-05-10T05:12:17;0.80;;;0.80;;
11960;SDS011;6040;49.358;11.140;2023-05-10T05:14:44;0.90;;;0.90;;
11960;SDS011;6040;49.358;11.140;2023-05-10T05:17:11;0.70;;;0.70;;
11960;SDS011;6040;49.358;11.140;2023-05-10T05:19:38;0.90;;;0.90;;
11960;SDS011;6040;49.358;11.140;2023-05-10T05:22:06;0.90;;;0.90;;
11960;SDS011;6040;49.358;11.140;2023-05-10T05:24:34;0.73;;;0.73;;
11960;SDS011;6040;49.358;11.140;2023-05-10T05:27:04;1.03;;;0.90;;
11960;SDS011;6040;49.358;11.140;2023-05-10T05:29:31;3.83;;;0.80;;
11960;SDS011;6040;49.358;11.140;2023-05-10T05:31:57;1.37;;;0.83;;
11960;SDS011;6040;49.358;11.140;2023-05-10T05:34:24;0.80;;;0.80;;
11960;SDS011;6040;49.358;11.140;2023-05-10T05:36:51;0.97;;;0.90;;
11960;SDS011;6040;49.358;11.140;2023-05-10T05:39:18;2.43;;;0.77;;
11960;SDS011;6040;49.358;11.140;2023-05-10T05:41:45;3.13;;;0.90;;
11960;SDS011;6040;49.358;11.140;2023-05-10T05:44:13;0.77;;;0.77;;
11960;SDS011;6040;49.358;11.140;2023-05-10T05:46:40;1.00;;;0.83;;
11960;SDS011;6040;49.358;11.140;2023-05-10T05:49:08;0.80;;;0.80;;
11960;SDS011;6040;49.358;11.140;2023-05-10T05:51:35;0.97;;;0.80;;
11960;SDS011;6040;49.358;11.140;2023-05-10T05:54:02;1.23;;;0.80;;
11960;SDS011;6040;49.358;11.140;2023-05-10T05:56:29;1.10;;;1.00;;
11960;SDS011;6040;49.358;11.140;2023-05-10T05:58:56;1.17;;;0.83;;
11960;SDS011;6040;49.358;11.140;2023-05-10T06:01:24;0.80;;;0.80;;
11960;SDS011;6040;49.358;11.140;2023-05-10T06:03:51;1.10;;;0.90;;
11960;SDS011;6040;49.358;11.140;2023-05-10T06:06:17;0.90;;;0.90;;
11960;SDS011;6040;49.358;11.140;2023-05-10T06:08:44;1.93;;;1.10;;
11960;SDS011;6040;49.358;11.140;2023-05-10T06:11:11;1.90;;;1.00;;
11960;SDS011;6040;49.358;11.140;2023-05-10T06:13:38;1.00;;;1.00;;
11960;SDS011;6040;49.358;11.140;2023-05-10T06:16:05;1.17;;;1.07;;
11960;SDS011;6040;49.358;11.140;2023-05-10T06:18:33;2.70;;;0.83;;
11960;SDS011;6040;49.358;11.140;2023-05-10T06:21:01;1.17;;;1.17;;
11960;SDS011;6040;49.358;11.140;2023-05-10T06:23:27;0.97;;;0.97;;
11960;SDS011;6040;49.358;11.140;2023-05-10T06:25:54;1.07;;;0.90;;
11960;SDS011;6040;49.358;11.140;2023-05-10T06:28:21;1.77;;;0.90;;
11960;SDS011;6040;49.358;11.140;2023-05-10T06:30:48;0.97;;;0.97;;
11960;SDS011;6040;49.358;11.140;2023-05-10T06:33:14;1.40;;;1.27;;
11960;SDS011;6040;49.358;11.140;2023-05-10T06:35:43;3.77;;;1.20;;
11960;SDS011;6040;49.358;11.140;2023-05-10T06:38:10;1.80;;;1.10;;
11960;SDS011;6040;49.358;11.140;2023-05-10T06:40:37;2.63;;;1.23;;
11960;SDS011;6040;49.358;11.140;2023-05-10T06:43:07;1.30;;;1.20;;
11960;SDS011;6040;49.358;11.140;2023-05-10T06:45:34;1.10;;;1.10;;
11960;SDS011;6040;49.358;11.140;2023-05-10T06:48:01;1.97;;;1.20;;
11960;SDS011;6040;49.358;11.140;2023-05-10T06:50:28;1.30;;;1.20;;
11960;SDS011;6040;49.358;11.140;2023-05-10T06:52:56;3.00;;;1.30;;
11960;SDS011;6040;49.358;11.140;2023-05-10T06:55:23;1.10;;;1.10;;
11960;SDS011;6040;49.358;11.140;2023-05-10T06:57:49;1.10;;;1.10;;
11960;SDS011;6040;49.358;11.140;2023-05-10T07:00:17;1.80;;;1.20;;
11960;SDS011;6040;49.358;11.140;2023-05-10T07:02:44;2.30;;;1.20;;
11960;SDS011;6040;49.358;11.140;2023-05-10T07:05:11;1.20;;;1.10;;
11960;SDS011;6040;49.358;11.140;2023-05-10T07:07:39;1.47;;;1.13;;
11960;SDS011;6040;49.358;11.140;2023-05-10T07:10:07;1.00;;;1.00;;
11960;SDS011;6040;49.358;11.140;2023-05-10T07:12:35;1.17;;;1.10;;
11960;SDS011;6040;49.358;11.140;2023-05-10T07:15:03;2.10;;;1.20;;
11960;SDS011;6040;49.358;11.140;2023-05-10T07:17:30;1.17;;;1.10;;
11960;SDS011;6040;49.358;11.140;2023-05-10T07:19:58;1.30;;;1.20;;
11960;SDS011;6040;49.358;11.140;2023-05-10T07:22:25;1.50;;;1.37;;
11960;SDS011;6040;49.358;11.140;2023-05-10T07:24:52;1.30;;;1.20;;
11960;SDS011;6040;49.358;11.140;2023-05-10T07:27:20;1.63;;;1.27;;
11960;SDS011;6040;49.358;11.140;2023-05-10T07:29:47;1.00;;;1.00;;
11960;SDS011;6040;49.358;11.140;2023-05-10T07:32:13;1.20;;;1.07;;
11960;SDS011;6040;49.358;11.140;2023-05-10T07:34:40;1.20;;;1.20;;
11960;SDS011;6040;49.358;11.140;2023-05-10T07:37:07;1.07;;;1.07;;
11960;SDS011;6040;49.358;11.140;2023-05-10T07:39:34;2.37;;;1.30;;
11960;SDS011;6040;49.358;11.140;2023-05-10T07:42:02;1.20;;;1.10;;
11960;SDS011;6040;49.358;11.140;2023-05-10T07:44:30;1.23;;;1.20;;
11960;SDS011;6040;49.358;11.140;2023-05-10T07:46:57;1.07;;;1.07;;
11960;SDS011;6040;49.358;11.140;2023-05-10T07:49:25;1.33;;;1.10;;
11960;SDS011;6040;49.358;11.140;2023-05-10T07:51:52;1.30;;;1.20;;
11960;SDS011;6040;49.358;11.140;2023-05-10T07:54:18;1.30;;;1.20;;
11960;SDS011;6040;49.358;11.140;2023-05-10T07:56:45;1.53;;;1.10;;
11960;SDS011;6040;49.358;11.140;2023-05-10T07:59:14;1.23;;;1.13;;
11960;SDS011;6040;49.358;11.140;2023-05-10T08:01:44;4.00;;;1.17;;
11960;SDS011;6040;49.358;11.140;2023-05-10T08:04:11;2.97;;;1.10;;
11960;SDS011;6040;49.358;11.140;2023-05-10T08:06:38;1.33;;;1.10;;
11960;SDS011;6040;49.358;11.140;2023-05-10T08:09:05;2.70;;;1.90;;
11960;SDS011;6040;49.358;11.140;2023-05-10T08:11:32;3.40;;;1.20;;
11960;SDS011;6040;49.358;11.140;2023-05-10T08:13:58;2.50;;;1.87;;
11960;SDS011;6040;49.358;11.140;2023-05-10T08:16:25;0.90;;;0.90;;
11960;SDS011;6040;49.358;11.140;2023-05-10T08:18:53;2.50;;;1.30;;
11960;SDS011;6040;49.358;11.140;2023-05-10T08:21:21;2.37;;;1.40;;
11960;SDS011;6040;49.358;11.140;2023-05-10T08:23:47;8.13;;;2.73;;
11960;SDS011;6040;49.358;11.140;2023-05-10T08:26:14;8.20;;;3.37;;
11960;SDS011;6040;49.358;11.140;2023-05-10T08:28:41;6.07;;;2.40;;
11960;SDS011;6040;49.358;11.140;2023-05-10T08:31:08;3.30;;;1.87;;
11960;SDS011;6040;49.358;11.140;2023-05-10T08:33:35;2.20;;;1.20;;
11960;SDS011;6040;49.358;11.140;2023-05-10T08:36:03;2.63;;;1.33;;
11960;SDS011;6040;49.358;11.140;2023-05-10T08:38:30;2.37;;;1.60;;
11960;SDS011;6040;49.358;11.140;2023-05-10T08:40:57;1.87;;;1.27;;
11960;SDS011;6040;49.358;11.140;2023-05-10T08:43:26;1.37;;;1.10;;
11960;SDS011;6040;49.358;11.140;2023-05-10T08:45:54;1.53;;;1.20;;
11960;SDS011;6040;49.358;11.140;2023-05-10T08:48:23;12.70;;;4.80;;
11960;SDS011;6040;49.358;11.140;2023-05-10T08:50:52;1.87;;;1.50;;
11960;SDS011;6040;49.358;11.140;2023-05-10T08:53:21;1.53;;;1.30;;
11960;SDS011;6040;49.358;11.140;2023-05-10T08:55:52;1.27;;;1.20;;
11960;SDS011;6040;49.358;11.140;2023-05-10T08:58:19;3.93;;;1.30;;
11960;SDS011;6040;49.358;11.140;2023-05-10T09:00:49;1.47;;;1.20;;
11960;SDS011;6040;49.358;11.140;2023-05-10T09:03:17;2.57;;;1.30;;
11960;SDS011;6040;49.358;11.140;2023-05-10T09:05:44;1.23;;;1.23;;
11960;SDS011;6040;49.358;11.140;2023-05-10T09:08:11;1.30;;;1.20;;
11960;SDS011;6040;49.358;11.140;2023-05-10T09:10:42;1.20;;;1.20;;
11960;SDS011;6040;49.358;11.140;2023-05-10T09:13:09;3.17;;;1.60;;
11960;SDS011;6040;49.358;11.140;2023-05-10T09:15:37;1.53;;;1.43;;
11960;SDS011;6040;49.358;11.140;2023-05-10T09:18:04;1.20;;;1.20;;
11960;SDS011;6040;49.358;11.140;2023-05-10T09:20:31;1.93;;;1.40;;
11960;SDS011;6040;49.358;11.140;2023-05-10T09:22:58;1.50;;;1.40;;
11960;SDS011;6040;49.358;11.140;2023-05-10T09:25:25;2.23;;;1.60;;
11960;SDS011;6040;49.358;11.140;2023-05-10T09:27:53;1.50;;;1.40;;
11960;SDS011;6040;49.358;11.140;2023-05-10T09:30:23;1.63;;;1.50;;
11960;SDS011;6040;49.358;11.140;2023-05-10T09:32:51;2.63;;;1.37;;
11960;SDS011;6040;49.358;11.140;2023-05-10T09:35:20;1.43;;;1.33;;
11960;SDS011;6040;49.358;11.140;2023-05-10T09:37:49;1.50;;;1.40;;
11960;SDS011;6040;49.358;11.140;2023-05-10T09:40:19;3.30;;;1.70;;
11960;SDS011;6040;49.358;11.140;2023-05-10T09:42:51;1.77;;;1.30;;
11960;SDS011;6040;49.358;11.140;2023-05-10T09:45:20;2.70;;;1.40;;
11960;SDS011;6040;49.358;11.140;2023-05-10T09:47:48;3.57;;;1.30;;
11960;SDS011;6040;49.358;11.140;2023-05-10T09:50:14;5.03;;;1.37;;
11960;SDS011;6040;49.358;11.140;2023-05-10T09:52:48;3.30;;;1.50;;
11960;SDS011;6040;49.358;11.140;2023-05-10T09:55:17;3.20;;;1.30;;
11960;SDS011;6040;49.358;11.140;2023-05-10T09:57:44;3.47;;;1.50;;
11960;SDS011;6040;49.358;11.140;2023-05-10T10:00:16;2.30;;;1.30;;
11960;SDS011;6040;49.358;11.140;2023-05-10T10:02:45;3.00;;;1.47;;
11960;SDS011;6040;49.358;11.140;2023-05-10T10:05:14;2.37;;;1.60;;
11960;SDS011;6040;49.358;11.140;2023-05-10T10:07:41;1.40;;;1.30;;
11960;SDS011;6040;49.358;11.140;2023-05-10T10:10:08;2.07;;;1.60;;
11960;SDS011;6040;49.358;11.140;2023-05-10T10:12:37;2.07;;;1.70;;
11960;SDS011;6040;49.358;11.140;2023-05-10T10:15:06;2.10;;;1.53;;
11960;SDS011;6040;49.358;11.140;2023-05-10T10:17:36;1.67;;;1.50;;
11960;SDS011;6040;49.358;11.140;2023-05-10T10:20:04;2.80;;;1.70;;
11960;SDS011;6040;49.358;11.140;2023-05-10T10:22:32;1.60;;;1.50;;
11960;SDS011;6040;49.358;11.140;2023-05-10T10:24:59;2.07;;;1.60;;
11960;SDS011;6040;49.358;11.140;2023-05-10T10:27:28;3.90;;;1.50;;
11960;SDS011;6040;49.358;11.140;2023-05-10T10:30:10;2.73;;;1.40;;
11960;SDS011;6040;49.358;11.140;2023-05-10T10:32:51;2.27;;;1.40;;
11960;SDS011;6040;49.358;11.140;2023-05-10T10:35:33;2.00;;;1.33;;
11960;SDS011;6040;49.358;11.140;2023-05-10T10:38:01;1.20;;;1.10;;
11960;SDS011;6040;49.358;11.140;2023-05-10T10:40:28;2.80;;;1.10;;
11960;SDS011;6040;49.358;11.140;2023-05-10T10:42:56;1.53;;;1.30;;
11960;SDS011;6040;49.358;11.140;2023-05-10T10:45:24;1.23;;;1.13;;
11960;SDS011;6040;49.358;11.140;2023-05-10T10:50:55;2.33;;;1.40;;
11960;SDS011;6040;49.358;11.140;2023-05-10T10:53:24;1.57;;;1.30;;
11960;SDS011;6040;49.358;11.140;2023-05-10T10:55:56;2.47;;;1.27;;
11960;SDS011;6040;49.358;11.140;2023-05-10T10:58:32;3.33;;;1.30;;
11960;SDS011;6040;49.358;11.140;2023-05-10T11:06:54;1.73;;;1.20;;
11960;SDS011;6040;49.358;11.140;2023-05-10T11:09:45;2.07;;;1.30;;
11960;SDS011;6040;49.358;11.140;2023-05-10T11:12:13;1.17;;;1.10;;
11960;SDS011;6040;49.358;11.140;2023-05-10T11:14:40;1.33;;;1.20;;
11960;SDS011;6040;49.358;11.140;2023-05-10T11:17:23;2.20;;;1.20;;
11960;SDS011;6040;49.358;11.140;2023-05-10T11:20:09;1.57;;;1.27;;
11960;SDS011;6040;49.358;11.140;2023-05-10T11:22:50;1.37;;;1.20;;
11960;SDS011;6040;49.358;11.140;2023-05-10T11:25:17;1.93;;;1.00;;
11960;SDS011;6040;49.358;11.140;2023-05-10T11:27:45;1.00;;;1.00;;
11960;SDS011;6040;49.358;11.140;2023-05-10T11:30:14;1.43;;;1.33;;
11960;SDS011;6040;49.358;11.140;2023-05-10T11:32:41;1.90;;;1.50;;
11960;SDS011;6040;49.358;11.140;2023-05-10T11:35:08;4.90;;;1.63;;
11960;SDS011;6040;49.358;11.140;2023-05-10T11:37:36;1.00;;;0.97;;
11960;SDS011;6040;49.358;11.140;2023-05-10T11:40:08;3.00;;;1.27;;
11960;SDS011;6040;49.358;11.140;2023-05-10T11:42:35;1.30;;;1.20;;
11960;SDS011;6040;49.358;11.140;2023-05-10T11:45:03;3.47;;;1.90;;
11960;SDS011;6040;49.358;11.140;2023-05-10T11:47:31;1.40;;;1.23;;
11960;SDS011;6040;49.358;11.140;2023-05-10T11:50:00;1.87;;;1.60;;
11960;SDS011;6040;49.358;11.140;2023-05-10T11:52:27;4.13;;;2.67;;
11960;SDS011;6040;49.358;11.140;2023-05-10T11:54:54;2.47;;;1.83;;
11960;SDS011;6040;49.358;11.140;2023-05-10T11:57:25;3.33;;;1.77;;
11960;SDS011;6040;49.358;11.140;2023-05-10T11:59:53;1.80;;;1.70;;
11960;SDS011;6040;49.358;11.140;2023-05-10T12:02:20;1.77;;;1.50;;
11960;SDS011;6040;49.358;11.140;2023-05-10T12:04:47;3.07;;;2.03;;
11960;SDS011;6040;49.358;11.140;2023-05-10T12:07:14;4.30;;;1.33;;
11960;SDS011;6040;49.358;11.140;2023-05-10T12:09:42;1.33;;;1.23;;
11960;SDS011;6040;49.358;11.140;2023-05-10T12:12:09;1.83;;;1.27;;
11960;SDS011;6040;49.358;11.140;2023-05-10T12:14:37;3.80;;;1.20;;
11960;SDS011;6040;49.358;11.140;2023-05-10T12:17:04;1.33;;;1.10;;
11960;SDS011;6040;49.358;11.140;2023-05-10T12:19:36;2.50;;;1.10;;
11960;SDS011;6040;49.358;11.140;2023-05-10T12:22:04;3.77;;;1.20;;
11960;SDS011;6040;49.358;11.140;2023-05-10T12:24:33;2.90;;;1.20;;
11960;SDS011;6040;49.358;11.140;2023-05-10T12:27:04;1.00;;;1.00;;
11960;SDS011;6040;49.358;11.140;2023-05-10T12:29:32;1.10;;;1.10;;
11960;SDS011;6040;49.358;11.140;2023-05-10T12:32:00;1.60;;;1.00;;
11960;SDS011;6040;49.358;11.140;2023-05-10T12:34:30;1.33;;;1.17;;
11960;SDS011;6040;49.358;11.140;2023-05-10T12:36:58;1.20;;;1.10;;
11960;SDS011;6040;49.358;11.140;2023-05-10T12:39:25;0.97;;;0.97;;
11960;SDS011;6040;49.358;11.140;2023-05-10T12:41:52;1.83;;;1.03;;
11960;SDS011;6040;49.358;11.140;2023-05-10T12:44:19;2.70;;;1.10;;
11960;SDS011;6040;49.358;11.140;2023-05-10T12:46:45;0.93;;;0.90;;
11960;SDS011;6040;49.358;11.140;2023-05-10T12:49:14;1.40;;;1.00;;
11960;SDS011;6040;49.358;11.140;2023-05-10T12:51:41;1.20;;;1.00;;
11960;SDS011;6040;49.358;11.140;2023-05-10T12:54:08;2.60;;;1.23;;
11960;SDS011;6040;49.358;11.140;2023-05-10T12:56:35;1.17;;;1.10;;
11960;SDS011;6040;49.358;11.140;2023-05-10T12:59:02;1.23;;;1.10;;
11960;SDS011;6040;49.358;11.140;2023-05-10T13:01:29;3.00;;;1.10;;
11960;SDS011;6040;49.358;11.140;2023-05-10T13:03:56;1.27;;;1.10;;
11960;SDS011;6040;49.358;11.140;2023-05-10T13:06:24;2.00;;;1.30;;
11960;SDS011;6040;49.358;11.140;2023-05-10T13:08:51;1.03;;;1.00;;
11960;SDS011;6040;49.358;11.140;2023-05-10T13:11:18;1.20;;;1.10;;
11960;SDS011;6040;49.358;11.140;2023-05-10T13:13:45;1.07;;;1.00;;
11960;SDS011;6040;49.358;11.140;2023-05-10T13:16:11;1.00;;;1.00;;
11960;SDS011;6040;49.358;11.140;2023-05-10T13:18:38;1.27;;;1.17;;
11960;SDS011;6040;49.358;11.140;2023-05-10T13:21:05;1.60;;;1.10;;
11960;SDS011;6040;49.358;11.140;2023-05-10T13:23:33;0.93;;;0.93;;
11960;SDS011;6040;49.358;11.140;2023-05-10T13:26:00;0.80;;;0.80;;
11960;SDS011;6040;49.358;11.140;2023-05-10T13:28:27;1.10;;;1.03;;
11960;SDS011;6040;49.358;11.140;2023-05-10T13:30:55;4.23;;;2.50;;
11960;SDS011;6040;49.358;11.140;2023-05-10T13:33:21;1.80;;;1.20;;
11960;SDS011;6040;49.358;11.140;2023-05-10T13:35:48;1.70;;;1.20;;
11960;SDS011;6040;49.358;11.140;2023-05-10T13:38:15;1.30;;;1.20;;
11960;SDS011;6040;49.358;11.140;2023-05-10T13:40:43;1.43;;;1.00;;
11960;SDS011;6040;49.358;11.140;2023-05-10T13:43:10;1.00;;;1.00;;
11960;SDS011;6040;49.358;11.140;2023-05-10T13:45:37;3.23;;;1.10;;
11960;SDS011;6040;49.358;11.140;2023-05-10T13:48:04;3.37;;;1.40;;
11960;SDS011;6040;49.358;11.140;2023-05-10T13:50:31;5.20;;;1.40;;
11960;SDS011;6040;49.358;11.140;2023-05-10T13:52:58;3.57;;;1.40;;
11960;SDS011;6040;49.358;11.140;2023-05-10T13:55:25;3.20;;;1.90;;
11960;SDS011;6040;49.358;11.140;2023-05-10T13:57:53;1.83;;;1.37;;
11960;SDS011;6040;49.358;11.140;2023-05-10T14:00:20;1.40;;;1.30;;
11960;SDS011;6040;49.358;11.140;2023-05-10T14:02:47;1.47;;;1.37;;
11960;SDS011;6040;49.358;11.140;2023-05-10T14:05:14;3.23;;;1.97;;
11960;SDS011;6040;49.358;11.140;2023-05-10T14:07:41;1.93;;;1.23;;
11960;SDS011;6040;49.358;11.140;2023-05-10T14:10:08;1.50;;;1.40;;
11960;SDS011;6040;49.358;11.140;2023-05-10T14:12:35;1.50;;;1.40;;
11960;SDS011;6040;49.358;11.140;2023-05-10T14:15:04;1.83;;;1.50;;
11960;SDS011;6040;49.358;11.140;2023-05-10T14:17:31;3.00;;;1.20;;
11960;SDS011;6040;49.358;11.140;2023-05-10T14:19:58;1.33;;;1.20;;
11960;SDS011;6040;49.358;11.140;2023-05-10T14:22:25;1.90;;;1.20;;
11960;SDS011;6040;49.358;11.140;2023-05-10T14:24:52;1.37;;;1.27;;
11960;SDS011;6040;49.358;11.140;2023-05-10T14:27:18;1.20;;;1.10;;
11960;SDS011;6040;49.358;11.140;2023-05-10T14:29:45;1.20;;;1.10;;
11960;SDS011;6040;49.358;11.140;2023-05-10T14:32:14;1.03;;;0.90;;
11960;SDS011;6040;49.358;11.140;2023-05-10T14:34:41;1.60;;;1.10;;
11960;SDS011;6040;49.358;11.140;2023-05-10T14:37:09;0.83;;;0.83;;
11960;SDS011;6040;49.358;11.140;2023-05-10T14:39:37;1.20;;;1.10;;
11960;SDS011;6040;49.358;11.140;2023-05-10T14:42:04;0.93;;;0.93;;
11960;SDS011;6040;49.358;11.140;2023-05-10T14:44:31;0.90;;;0.90;;
11960;SDS011;6040;49.358;11.140;2023-05-10T14:46:57;1.30;;;1.20;;
11960;SDS011;6040;49.358;11.140;2023-05-10T14:49:26;2.33;;;1.17;;
11960;SDS011;6040;49.358;11.140;2023-05-10T14:51:53;2.27;;;1.30;;
11960;SDS011;6040;49.358;11.140;2023-05-10T14:54:19;1.30;;;1.20;;
11960;SDS011;6040;49.358;11.140;2023-05-10T14:56:46;1.63;;;1.10;;
11960;SDS011;6040;49.358;11.140;2023-05-10T14:59:14;1.73;;;1.00;;
11960;SDS011;6040;49.358;11.140;2023-05-10T15:01:41;1.00;;;1.00;;
11960;SDS011;6040;49.358;11.140;2023-05-10T15:04:08;2.40;;;1.00;;
11960;SDS011;6040;49.358;11.140;2023-05-10T15:06:36;3.03;;;0.90;;